sensor_id;sensor_type;location;lat;lon;timestamp;temperature;humidity
25248;DHT22;13191;47.472;11.214;2023-06-19T00:00:50;16.00;99.90
25248;DHT22;13191;47.472;11.214;2023-06-19T00:03:16;16.00;99.90
25248;DHT22;13191;47.472;11.214;2023-06-19T00:05:41;16.00;99.90
25248;DHT22;13191;47.472;11.214;2023-06-19T00:08:06;16.00;99.90
25248;DHT22;13191;47.472;11.214;2023-06-19T00:10:32;16.00;99.90
25248;DHT22;13191;47.472;11.214;2023-06-19T00:12:58;16.00;99.90
25248;DHT22;13191;47.472;11.214;2023-06-19T00:15:23;16.00;99.90
25248;DHT22;13191;47.472;11.214;2023-06-19T00:17:49;16.00;99.90
25248;DHT22;13191;47.472;11.214;2023-06-19T00:20:14;15.90;99.90
25248;DHT22;13191;47.472;11.214;2023-06-19T00:22:40;15.80;99.90
25248;DHT22;13191;47.472;11.214;2023-06-19T00:25:06;15.80;99.90
25248;DHT22;13191;47.472;11.214;2023-06-19T00:27:31;15.90;99.90
25248;DHT22;13191;47.472;11.214;2023-06-19T00:29:57;15.80;99.90
25248;DHT22;13191;47.472;11.214;2023-06-19T00:32:28;15.80;99.90
25248;DHT22;13191;47.472;11.214;2023-06-19T00:34:54;15.90;99.90
25248;DHT22;13191;47.472;11.214;2023-06-19T00:37:19;15.80;99.90
25248;DHT22;13191;47.472;11.214;2023-06-19T00:39:45;15.80;99.90
25248;DHT22;13191;47.472;11.214;2023-06-19T00:42:10;15.70;99.90
25248;DHT22;13191;47.472;11.214;2023-06-19T00:44:36;15.70;99.90
25248;DHT22;13191;47.472;11.214;2023-06-19T00:47:02;15.80;99.90
25248;DHT22;13191;47.472;11.214;2023-06-19T00:49:28;15.80;99.90
25248;DHT22;13191;47.472;11.214;2023-06-19T00:51:54;15.80;99.90
25248;DHT22;13191;47.472;11.214;2023-06-19T00:54:20;15.80;99.90
25248;DHT22;13191;47.472;11.214;2023-06-19T00:56:45;15.80;99.90
25248;DHT22;13191;47.472;11.214;2023-06-19T00:59:14;15.80;99.90
25248;DHT22;13191;47.472;11.214;2023-06-19T01:01:40;15.70;99.90
25248;DHT22;13191;47.472;11.214;2023-06-19T01:04:06;15.70;99.90
25248;DHT22;13191;47.472;11.214;2023-06-19T01:06:40;15.70;99.90
25248;DHT22;13191;47.472;11.214;2023-06-19T01:09:10;15.60;99.90
25248;DHT22;13191;47.472;11.214;2023-06-19T01:11:37;15.60;99.90
25248;DHT22;13191;47.472;11.214;2023-06-19T01:14:09;15.60;99.90
25248;DHT22;13191;47.472;11.214;2023-06-19T01:16:38;15.60;99.90
25248;DHT22;13191;47.472;11.214;2023-06-19T01:19:04;15.60;99.90
25248;DHT22;13191;47.472;11.214;2023-06-19T01:21:30;15.60;99.90
25248;DHT22;13191;47.472;11.214;2023-06-19T01:23:55;15.70;99.90
25248;DHT22;13191;47.472;11.214;2023-06-19T01:26:22;15.70;99.90
25248;DHT22;13191;47.472;11.214;2023-06-19T01:28:51;15.70;99.90
25248;DHT22;13191;47.472;11.214;2023-06-19T01:31:18;15.70;99.90
25248;DHT22;13191;47.472;11.214;2023-06-19T01:33:46;15.80;99.90
25248;DHT22;13191;47.472;11.214;2023-06-19T01:38:51;15.80;99.90
25248;DHT22;13191;47.472;11.214;2023-06-19T01:41:19;15.70;99.90
25248;DHT22;13191;47.472;11.214;2023-06-19T01:43:47;15.70;99.90
25248;DHT22;13191;47.472;11.214;2023-06-19T01:46:13;15.60;99.90
25248;DHT22;13191;47.472;11.214;2023-06-19T01:48:39;15.60;99.90
25248;DHT22;13191;47.472;11.214;2023-06-19T01:51:04;15.60;99.90
25248;DHT22;13191;47.472;11.214;2023-06-19T01:53:30;15.50;99.90
25248;DHT22;13191;47.472;11.214;2023-06-19T01:55:57;15.60;99.90
25248;DHT22;13191;47.472;11.214;2023-06-19T01:58:22;15.60;99.90
25248;DHT22;13191;47.472;11.214;2023-06-19T02:00:48;15.50;99.90
25248;DHT22;13191;47.472;11.214;2023-06-19T02:03:13;15.50;99.90
25248;DHT22;13191;47.472;11.214;2023-06-19T02:05:39;15.40;99.90
25248;DHT22;13191;47.472;11.214;2023-06-19T02:08:05;15.40;99.90
25248;DHT22;13191;47.472;11.214;2023-06-19T02:10:30;15.30;99.90
25248;DHT22;13191;47.472;11.214;2023-06-19T02:12:56;15.40;99.90
25248;DHT22;13191;47.472;11.214;2023-06-19T02:15:21;15.40;99.90
25248;DHT22;13191;47.472;11.214;2023-06-19T02:17:47;15.40;99.90
25248;DHT22;13191;47.472;11.214;2023-06-19T02:20:12;15.40;99.90
25248;DHT22;13191;47.472;11.214;2023-06-19T02:22:38;15.50;99.90
25248;DHT22;13191;47.472;11.214;2023-06-19T02:25:04;15.50;99.90
25248;DHT22;13191;47.472;11.214;2023-06-19T02:27:30;15.50;99.90
25248;DHT22;13191;47.472;11.214;2023-06-19T02:29:55;15.60;99.90
25248;DHT22;13191;47.472;11.214;2023-06-19T02:32:21;15.50;99.90
25248;DHT22;13191;47.472;11.214;2023-06-19T02:34:46;15.60;99.90
25248;DHT22;13191;47.472;11.214;2023-06-19T02:37:11;15.60;99.90
25248;DHT22;13191;47.472;11.214;2023-06-19T02:39:37;15.60;99.90
25248;DHT22;13191;47.472;11.214;2023-06-19T02:42:03;15.60;99.90
25248;DHT22;13191;47.472;11.214;2023-06-19T02:44:29;15.60;99.90
25248;DHT22;13191;47.472;11.214;2023-06-19T02:46:54;15.50;99.90
25248;DHT22;13191;47.472;11.214;2023-06-19T02:49:19;15.50;99.90
25248;DHT22;13191;47.472;11.214;2023-06-19T02:51:45;15.50;99.90
25248;DHT22;13191;47.472;11.214;2023-06-19T02:54:11;15.50;99.90
25248;DHT22;13191;47.472;11.214;2023-06-19T02:56:37;15.50;99.90
25248;DHT22;13191;47.472;11.214;2023-06-19T02:59:02;15.50;99.90
25248;DHT22;13191;47.472;11.214;2023-06-19T03:01:28;15.50;99.90
25248;DHT22;13191;47.472;11.214;2023-06-19T03:03:53;15.50;99.90
25248;DHT22;13191;47.472;11.214;2023-06-19T03:06:19;15.50;99.90
25248;DHT22;13191;47.472;11.214;2023-06-19T03:08:45;15.60;99.90
25248;DHT22;13191;47.472;11.214;2023-06-19T03:11:11;15.60;99.90
25248;DHT22;13191;47.472;11.214;2023-06-19T03:13:52;15.60;99.90
25248;DHT22;13191;47.472;11.214;2023-06-19T03:16:17;15.70;99.90
25248;DHT22;13191;47.472;11.214;2023-06-19T03:18:43;15.70;99.90
25248;DHT22;13191;47.472;11.214;2023-06-19T03:21:12;15.60;99.90
25248;DHT22;13191;47.472;11.214;2023-06-19T03:23:38;15.60;99.90
25248;DHT22;13191;47.472;11.214;2023-06-19T03:26:03;15.50;99.90
25248;DHT22;13191;47.472;11.214;2023-06-19T03:28:29;15.50;99.90
25248;DHT22;13191;47.472;11.214;2023-06-19T03:30:54;15.50;99.90
25248;DHT22;13191;47.472;11.214;2023-06-19T03:33:20;15.50;99.90
25248;DHT22;13191;47.472;11.214;2023-06-19T03:35:45;15.50;99.90
25248;DHT22;13191;47.472;11.214;2023-06-19T03:38:11;15.50;99.90
25248;DHT22;13191;47.472;11.214;2023-06-19T03:40:36;15.50;99.90
25248;DHT22;13191;47.472;11.214;2023-06-19T03:43:02;15.60;99.90
25248;DHT22;13191;47.472;11.214;2023-06-19T03:45:27;15.60;99.90
25248;DHT22;13191;47.472;11.214;2023-06-19T03:47:53;15.60;99.90
25248;DHT22;13191;47.472;11.214;2023-06-19T03:50:18;15.60;99.90
25248;DHT22;13191;47.472;11.214;2023-06-19T03:52:44;15.50;99.90
25248;DHT22;13191;47.472;11.214;2023-06-19T03:55:10;15.60;99.90
25248;DHT22;13191;47.472;11.214;2023-06-19T03:57:35;15.60;99.90
25248;DHT22;13191;47.472;11.214;2023-06-19T04:00:00;15.60;99.90
25248;DHT22;13191;47.472;11.214;2023-06-19T04:02:26;15.70;99.90
25248;DHT22;13191;47.472;11.214;2023-06-19T04:04:51;15.70;99.90
25248;DHT22;13191;47.472;11.214;2023-06-19T04:07:17;15.70;99.90
25248;DHT22;13191;47.472;11.214;2023-06-19T04:09:42;15.70;99.90
25248;DHT22;13191;47.472;11.214;2023-06-19T04:12:08;15.80;99.90
25248;DHT22;13191;47.472;11.214;2023-06-19T04:14:33;15.70;99.90
25248;DHT22;13191;47.472;11.214;2023-06-19T04:16:59;15.70;99.90
25248;DHT22;13191;47.472;11.214;2023-06-19T04:19:24;15.70;99.90
25248;DHT22;13191;47.472;11.214;2023-06-19T04:21:50;15.80;99.90
25248;DHT22;13191;47.472;11.214;2023-06-19T04:24:15;15.80;99.90
25248;DHT22;13191;47.472;11.214;2023-06-19T04:26:41;15.80;99.90
25248;DHT22;13191;47.472;11.214;2023-06-19T04:29:07;15.80;99.90
25248;DHT22;13191;47.472;11.214;2023-06-19T04:31:33;15.80;99.90
25248;DHT22;13191;47.472;11.214;2023-06-19T04:33:58;15.80;99.90
25248;DHT22;13191;47.472;11.214;2023-06-19T04:36:24;15.80;99.90
25248;DHT22;13191;47.472;11.214;2023-06-19T04:38:49;15.80;99.90
25248;DHT22;13191;47.472;11.214;2023-06-19T04:41:18;15.80;99.90
25248;DHT22;13191;47.472;11.214;2023-06-19T04:43:43;15.80;99.90
25248;DHT22;13191;47.472;11.214;2023-06-19T04:46:09;15.80;99.90
25248;DHT22;13191;47.472;11.214;2023-06-19T04:48:34;15.90;99.90
25248;DHT22;13191;47.472;11.214;2023-06-19T04:51:02;15.90;99.90
25248;DHT22;13191;47.472;11.214;2023-06-19T04:53:27;15.90;99.90
25248;DHT22;13191;47.472;11.214;2023-06-19T04:55:53;16.00;99.90
25248;DHT22;13191;47.472;11.214;2023-06-19T04:58:21;16.00;99.90
25248;DHT22;13191;47.472;11.214;2023-06-19T05:00:47;16.00;99.90
25248;DHT22;13191;47.472;11.214;2023-06-19T05:03:19;16.10;99.90
25248;DHT22;13191;47.472;11.214;2023-06-19T05:05:45;16.10;99.90
25248;DHT22;13191;47.472;11.214;2023-06-19T05:08:11;16.10;99.90
25248;DHT22;13191;47.472;11.214;2023-06-19T05:10:37;16.10;99.90
25248;DHT22;13191;47.472;11.214;2023-06-19T05:13:02;16.20;99.90
25248;DHT22;13191;47.472;11.214;2023-06-19T05:15:28;16.20;99.90
25248;DHT22;13191;47.472;11.214;2023-06-19T05:17:54;16.30;99.90
25248;DHT22;13191;47.472;11.214;2023-06-19T05:20:19;16.30;99.90
25248;DHT22;13191;47.472;11.214;2023-06-19T05:22:45;16.40;99.90
25248;DHT22;13191;47.472;11.214;2023-06-19T05:25:10;16.40;99.90
25248;DHT22;13191;47.472;11.214;2023-06-19T05:27:36;16.40;99.90
25248;DHT22;13191;47.472;11.214;2023-06-19T05:30:01;16.50;99.90
25248;DHT22;13191;47.472;11.214;2023-06-19T05:32:27;16.50;99.90
25248;DHT22;13191;47.472;11.214;2023-06-19T05:34:52;16.60;99.90
25248;DHT22;13191;47.472;11.214;2023-06-19T05:37:18;16.60;99.90
25248;DHT22;13191;47.472;11.214;2023-06-19T05:39:43;16.70;99.90
25248;DHT22;13191;47.472;11.214;2023-06-19T05:42:09;16.70;99.90
25248;DHT22;13191;47.472;11.214;2023-06-19T05:44:34;16.80;99.90
25248;DHT22;13191;47.472;11.214;2023-06-19T05:47:00;16.90;99.90
25248;DHT22;13191;47.472;11.214;2023-06-19T05:49:26;17.00;99.90
25248;DHT22;13191;47.472;11.214;2023-06-19T05:51:51;17.00;99.90
25248;DHT22;13191;47.472;11.214;2023-06-19T05:54:17;17.00;99.90
25248;DHT22;13191;47.472;11.214;2023-06-19T05:56:43;17.10;99.90
25248;DHT22;13191;47.472;11.214;2023-06-19T05:59:08;17.10;99.90
25248;DHT22;13191;47.472;11.214;2023-06-19T06:01:34;17.20;99.90
25248;DHT22;13191;47.472;11.214;2023-06-19T06:03:59;17.30;99.90
25248;DHT22;13191;47.472;11.214;2023-06-19T06:06:26;17.40;99.90
25248;DHT22;13191;47.472;11.214;2023-06-19T06:08:52;17.40;99.90
25248;DHT22;13191;47.472;11.214;2023-06-19T06:11:17;17.50;99.90
25248;DHT22;13191;47.472;11.214;2023-06-19T06:13:43;17.60;99.90
25248;DHT22;13191;47.472;11.214;2023-06-19T06:16:08;17.70;99.90
25248;DHT22;13191;47.472;11.214;2023-06-19T06:18:34;17.80;99.90
25248;DHT22;13191;47.472;11.214;2023-06-19T06:21:00;18.00;99.90
25248;DHT22;13191;47.472;11.214;2023-06-19T06:23:26;18.10;99.90
25248;DHT22;13191;47.472;11.214;2023-06-19T06:25:51;18.20;99.90
25248;DHT22;13191;47.472;11.214;2023-06-19T06:28:17;18.20;99.90
25248;DHT22;13191;47.472;11.214;2023-06-19T06:30:43;18.40;99.90
25248;DHT22;13191;47.472;11.214;2023-06-19T06:33:08;18.50;99.90
25248;DHT22;13191;47.472;11.214;2023-06-19T06:35:34;18.60;99.90
25248;DHT22;13191;47.472;11.214;2023-06-19T06:38:04;18.70;99.90
25248;DHT22;13191;47.472;11.214;2023-06-19T06:40:29;18.80;99.90
25248;DHT22;13191;47.472;11.214;2023-06-19T06:42:55;18.90;99.90
25248;DHT22;13191;47.472;11.214;2023-06-19T06:45:20;19.00;99.90
25248;DHT22;13191;47.472;11.214;2023-06-19T06:47:46;19.10;99.90
25248;DHT22;13191;47.472;11.214;2023-06-19T06:50:11;19.20;99.90
25248;DHT22;13191;47.472;11.214;2023-06-19T06:52:37;19.20;99.90
25248;DHT22;13191;47.472;11.214;2023-06-19T06:55:03;19.40;99.90
25248;DHT22;13191;47.472;11.214;2023-06-19T06:57:29;19.40;99.90
25248;DHT22;13191;47.472;11.214;2023-06-19T06:59:54;19.50;99.90
25248;DHT22;13191;47.472;11.214;2023-06-19T07:02:20;19.60;99.90
25248;DHT22;13191;47.472;11.214;2023-06-19T07:04:45;19.60;99.90
25248;DHT22;13191;47.472;11.214;2023-06-19T07:07:11;19.70;99.90
25248;DHT22;13191;47.472;11.214;2023-06-19T07:09:36;19.80;99.90
25248;DHT22;13191;47.472;11.214;2023-06-19T07:12:02;19.80;99.90
25248;DHT22;13191;47.472;11.214;2023-06-19T07:14:48;19.90;99.90
25248;DHT22;13191;47.472;11.214;2023-06-19T07:17:14;20.00;99.90
25248;DHT22;13191;47.472;11.214;2023-06-19T07:19:40;20.00;99.90
25248;DHT22;13191;47.472;11.214;2023-06-19T07:22:05;20.10;99.90
25248;DHT22;13191;47.472;11.214;2023-06-19T07:24:31;20.20;99.90
25248;DHT22;13191;47.472;11.214;2023-06-19T07:26:56;20.30;99.90
25248;DHT22;13191;47.472;11.214;2023-06-19T07:29:22;20.40;99.90
25248;DHT22;13191;47.472;11.214;2023-06-19T07:31:47;20.40;99.90
25248;DHT22;13191;47.472;11.214;2023-06-19T07:34:13;20.60;99.90
25248;DHT22;13191;47.472;11.214;2023-06-19T07:36:39;20.70;99.90
25248;DHT22;13191;47.472;11.214;2023-06-19T07:39:04;20.80;99.90
25248;DHT22;13191;47.472;11.214;2023-06-19T07:41:30;20.90;99.90
25248;DHT22;13191;47.472;11.214;2023-06-19T07:43:55;21.00;99.90
25248;DHT22;13191;47.472;11.214;2023-06-19T07:46:21;21.10;99.90
25248;DHT22;13191;47.472;11.214;2023-06-19T07:48:47;21.30;99.90
25248;DHT22;13191;47.472;11.214;2023-06-19T07:51:12;21.40;99.90
25248;DHT22;13191;47.472;11.214;2023-06-19T07:53:37;21.40;99.90
25248;DHT22;13191;47.472;11.214;2023-06-19T07:56:05;21.60;99.90
25248;DHT22;13191;47.472;11.214;2023-06-19T07:58:30;21.60;99.90
25248;DHT22;13191;47.472;11.214;2023-06-19T08:00:56;21.70;99.90
25248;DHT22;13191;47.472;11.214;2023-06-19T08:03:21;21.70;99.90
25248;DHT22;13191;47.472;11.214;2023-06-19T08:05:47;21.80;99.90
25248;DHT22;13191;47.472;11.214;2023-06-19T08:08:13;21.80;99.90
25248;DHT22;13191;47.472;11.214;2023-06-19T08:10:39;21.90;99.90
25248;DHT22;13191;47.472;11.214;2023-06-19T08:13:06;22.00;99.90
25248;DHT22;13191;47.472;11.214;2023-06-19T08:15:31;22.10;99.90
25248;DHT22;13191;47.472;11.214;2023-06-19T08:17:57;22.10;99.90
25248;DHT22;13191;47.472;11.214;2023-06-19T08:20:22;22.10;99.90
25248;DHT22;13191;47.472;11.214;2023-06-19T08:22:48;22.10;99.90
25248;DHT22;13191;47.472;11.214;2023-06-19T08:25:16;22.10;99.90
25248;DHT22;13191;47.472;11.214;2023-06-19T08:27:42;22.20;99.90
25248;DHT22;13191;47.472;11.214;2023-06-19T08:30:10;22.30;99.90
25248;DHT22;13191;47.472;11.214;2023-06-19T08:32:36;22.50;99.90
25248;DHT22;13191;47.472;11.214;2023-06-19T08:35:01;22.50;99.90
25248;DHT22;13191;47.472;11.214;2023-06-19T08:37:28;22.50;99.90
25248;DHT22;13191;47.472;11.214;2023-06-19T08:39:54;22.50;99.90
25248;DHT22;13191;47.472;11.214;2023-06-19T08:42:21;22.60;99.90
25248;DHT22;13191;47.472;11.214;2023-06-19T08:44:48;22.70;99.90
25248;DHT22;13191;47.472;11.214;2023-06-19T08:47:13;22.70;99.90
25248;DHT22;13191;47.472;11.214;2023-06-19T08:49:39;22.90;99.90
25248;DHT22;13191;47.472;11.214;2023-06-19T08:52:04;23.00;99.90
25248;DHT22;13191;47.472;11.214;2023-06-19T08:54:30;23.10;99.90
25248;DHT22;13191;47.472;11.214;2023-06-19T08:56:59;23.10;99.90
25248;DHT22;13191;47.472;11.214;2023-06-19T08:59:25;23.20;99.90
25248;DHT22;13191;47.472;11.214;2023-06-19T09:01:51;23.20;99.90
25248;DHT22;13191;47.472;11.214;2023-06-19T09:04:18;23.10;99.90
25248;DHT22;13191;47.472;11.214;2023-06-19T09:06:50;23.20;99.90
25248;DHT22;13191;47.472;11.214;2023-06-19T09:09:16;23.20;99.90
25248;DHT22;13191;47.472;11.214;2023-06-19T09:11:42;23.40;99.90
25248;DHT22;13191;47.472;11.214;2023-06-19T09:14:11;23.40;99.90
25248;DHT22;13191;47.472;11.214;2023-06-19T09:16:40;23.50;99.90
25248;DHT22;13191;47.472;11.214;2023-06-19T09:19:05;23.60;99.90
25248;DHT22;13191;47.472;11.214;2023-06-19T09:21:31;23.70;99.90
25248;DHT22;13191;47.472;11.214;2023-06-19T09:24:06;23.70;99.90
25248;DHT22;13191;47.472;11.214;2023-06-19T09:26:32;23.70;99.90
25248;DHT22;13191;47.472;11.214;2023-06-19T09:28:58;23.80;99.90
25248;DHT22;13191;47.472;11.214;2023-06-19T09:31:32;23.90;99.90
25248;DHT22;13191;47.472;11.214;2023-06-19T09:33:59;24.10;99.90
25248;DHT22;13191;47.472;11.214;2023-06-19T09:36:24;24.20;99.90
25248;DHT22;13191;47.472;11.214;2023-06-19T09:38:53;24.30;99.90
25248;DHT22;13191;47.472;11.214;2023-06-19T09:41:21;24.30;99.90
25248;DHT22;13191;47.472;11.214;2023-06-19T09:43:47;24.40;99.90
25248;DHT22;13191;47.472;11.214;2023-06-19T09:46:14;24.50;99.90
25248;DHT22;13191;47.472;11.214;2023-06-19T09:48:43;24.50;99.90
25248;DHT22;13191;47.472;11.214;2023-06-19T09:51:18;24.60;99.90
25248;DHT22;13191;47.472;11.214;2023-06-19T09:53:44;24.60;99.90
25248;DHT22;13191;47.472;11.214;2023-06-19T09:56:11;24.70;99.90
25248;DHT22;13191;47.472;11.214;2023-06-19T09:58:37;24.80;99.90
25248;DHT22;13191;47.472;11.214;2023-06-19T10:01:03;24.80;99.90
25248;DHT22;13191;47.472;11.214;2023-06-19T10:03:30;24.80;99.90
25248;DHT22;13191;47.472;11.214;2023-06-19T10:05:59;24.90;99.90
25248;DHT22;13191;47.472;11.214;2023-06-19T10:08:29;25.00;99.90
25248;DHT22;13191;47.472;11.214;2023-06-19T10:10:55;25.00;99.90
25248;DHT22;13191;47.472;11.214;2023-06-19T10:14:07;25.00;99.90
25248;DHT22;13191;47.472;11.214;2023-06-19T10:16:21;25.00;99.90
25248;DHT22;13191;47.472;11.214;2023-06-19T10:18:47;25.10;99.90
25248;DHT22;13191;47.472;11.214;2023-06-19T10:21:16;25.20;99.90
25248;DHT22;13191;47.472;11.214;2023-06-19T10:23:42;25.40;99.90
25248;DHT22;13191;47.472;11.214;2023-06-19T10:26:08;25.40;99.90
25248;DHT22;13191;47.472;11.214;2023-06-19T10:28:33;25.40;99.90
25248;DHT22;13191;47.472;11.214;2023-06-19T10:31:03;25.40;99.90
25248;DHT22;13191;47.472;11.214;2023-06-19T10:33:30;25.50;99.90
25248;DHT22;13191;47.472;11.214;2023-06-19T10:35:57;25.60;99.90
25248;DHT22;13191;47.472;11.214;2023-06-19T10:38:22;25.70;99.90
25248;DHT22;13191;47.472;11.214;2023-06-19T10:40:48;25.80;99.90
25248;DHT22;13191;47.472;11.214;2023-06-19T10:43:20;25.90;99.90
25248;DHT22;13191;47.472;11.214;2023-06-19T10:45:46;25.90;99.90
25248;DHT22;13191;47.472;11.214;2023-06-19T10:48:13;26.00;99.90
25248;DHT22;13191;47.472;11.214;2023-06-19T10:50:43;26.10;99.90
25248;DHT22;13191;47.472;11.214;2023-06-19T10:53:08;26.30;99.90
25248;DHT22;13191;47.472;11.214;2023-06-19T10:55:34;26.40;99.90
25248;DHT22;13191;47.472;11.214;2023-06-19T10:58:00;26.40;99.90
25248;DHT22;13191;47.472;11.214;2023-06-19T11:00:29;26.50;99.90
25248;DHT22;13191;47.472;11.214;2023-06-19T11:02:58;26.60;99.90
25248;DHT22;13191;47.472;11.214;2023-06-19T11:05:24;26.60;99.90
25248;DHT22;13191;47.472;11.214;2023-06-19T11:07:51;26.60;99.90
25248;DHT22;13191;47.472;11.214;2023-06-19T11:10:20;26.40;99.90
25248;DHT22;13191;47.472;11.214;2023-06-19T11:12:48;26.40;99.90
25248;DHT22;13191;47.472;11.214;2023-06-19T11:15:13;26.70;99.90
25248;DHT22;13191;47.472;11.214;2023-06-19T11:17:39;26.80;99.90
25248;DHT22;13191;47.472;11.214;2023-06-19T11:20:08;26.80;99.90
25248;DHT22;13191;47.472;11.214;2023-06-19T11:22:38;26.90;99.90
25248;DHT22;13191;47.472;11.214;2023-06-19T11:25:04;27.10;99.90
25248;DHT22;13191;47.472;11.214;2023-06-19T11:27:30;27.20;99.90
25248;DHT22;13191;47.472;11.214;2023-06-19T11:29:59;27.30;99.90
25248;DHT22;13191;47.472;11.214;2023-06-19T11:32:31;27.20;99.90
25248;DHT22;13191;47.472;11.214;2023-06-19T11:34:57;27.20;99.90
25248;DHT22;13191;47.472;11.214;2023-06-19T11:37:22;27.30;99.90
25248;DHT22;13191;47.472;11.214;2023-06-19T11:39:49;27.50;99.90
25248;DHT22;13191;47.472;11.214;2023-06-19T11:42:15;27.70;99.90
25248;DHT22;13191;47.472;11.214;2023-06-19T11:44:55;27.70;99.90
25248;DHT22;13191;47.472;11.214;2023-06-19T11:47:21;27.70;99.90
25248;DHT22;13191;47.472;11.214;2023-06-19T11:49:50;27.70;99.90
25248;DHT22;13191;47.472;11.214;2023-06-19T11:52:15;27.70;99.90
25248;DHT22;13191;47.472;11.214;2023-06-19T11:54:41;27.80;99.90
25248;DHT22;13191;47.472;11.214;2023-06-19T11:57:08;27.80;99.90
25248;DHT22;13191;47.472;11.214;2023-06-19T11:59:38;27.90;99.90
25248;DHT22;13191;47.472;11.214;2023-06-19T12:02:03;27.90;99.90
25248;DHT22;13191;47.472;11.214;2023-06-19T12:04:29;28.00;99.90
25248;DHT22;13191;47.472;11.214;2023-06-19T12:06:54;28.00;99.90
25248;DHT22;13191;47.472;11.214;2023-06-19T12:09:20;28.00;99.90
25248;DHT22;13191;47.472;11.214;2023-06-19T12:11:45;28.20;99.90
25248;DHT22;13191;47.472;11.214;2023-06-19T12:14:11;28.40;99.90
25248;DHT22;13191;47.472;11.214;2023-06-19T12:16:36;28.50;99.90
25248;DHT22;13191;47.472;11.214;2023-06-19T12:19:02;28.50;99.90
25248;DHT22;13191;47.472;11.214;2023-06-19T12:21:27;28.50;99.90
25248;DHT22;13191;47.472;11.214;2023-06-19T12:23:53;28.60;99.90
25248;DHT22;13191;47.472;11.214;2023-06-19T12:26:19;28.50;99.90
25248;DHT22;13191;47.472;11.214;2023-06-19T12:28:44;28.50;99.80
25248;DHT22;13191;47.472;11.214;2023-06-19T12:31:10;28.40;99.90
25248;DHT22;13191;47.472;11.214;2023-06-19T12:33:35;28.30;99.90
25248;DHT22;13191;47.472;11.214;2023-06-19T12:36:02;28.20;99.90
25248;DHT22;13191;47.472;11.214;2023-06-19T12:38:27;28.10;99.90
25248;DHT22;13191;47.472;11.214;2023-06-19T12:40:53;28.00;99.90
25248;DHT22;13191;47.472;11.214;2023-06-19T12:43:18;27.90;99.90
25248;DHT22;13191;47.472;11.214;2023-06-19T12:45:44;27.60;99.90
25248;DHT22;13191;47.472;11.214;2023-06-19T12:48:10;27.60;99.90
25248;DHT22;13191;47.472;11.214;2023-06-19T12:50:35;27.40;99.90
25248;DHT22;13191;47.472;11.214;2023-06-19T12:53:01;27.30;99.90
25248;DHT22;13191;47.472;11.214;2023-06-19T12:55:26;27.30;99.90
25248;DHT22;13191;47.472;11.214;2023-06-19T12:57:55;27.30;99.90
25248;DHT22;13191;47.472;11.214;2023-06-19T13:00:20;27.40;99.90
25248;DHT22;13191;47.472;11.214;2023-06-19T13:02:46;27.60;99.90
25248;DHT22;13191;47.472;11.214;2023-06-19T13:05:12;27.70;99.90
25248;DHT22;13191;47.472;11.214;2023-06-19T13:07:38;27.80;99.90
25248;DHT22;13191;47.472;11.214;2023-06-19T13:10:03;27.90;99.90
25248;DHT22;13191;47.472;11.214;2023-06-19T13:12:31;27.90;99.90
25248;DHT22;13191;47.472;11.214;2023-06-19T13:14:56;27.90;99.90
25248;DHT22;13191;47.472;11.214;2023-06-19T13:17:23;27.90;99.90
25248;DHT22;13191;47.472;11.214;2023-06-19T13:19:49;27.90;99.90
25248;DHT22;13191;47.472;11.214;2023-06-19T13:22:14;27.90;99.90
25248;DHT22;13191;47.472;11.214;2023-06-19T13:24:40;27.90;99.90
25248;DHT22;13191;47.472;11.214;2023-06-19T13:27:05;27.80;99.90
25248;DHT22;13191;47.472;11.214;2023-06-19T13:29:31;27.90;99.90
25248;DHT22;13191;47.472;11.214;2023-06-19T13:31:56;27.80;99.90
25248;DHT22;13191;47.472;11.214;2023-06-19T13:34:22;27.80;99.90
25248;DHT22;13191;47.472;11.214;2023-06-19T13:36:48;27.70;99.90
25248;DHT22;13191;47.472;11.214;2023-06-19T13:39:13;27.60;99.90
25248;DHT22;13191;47.472;11.214;2023-06-19T13:41:39;27.60;99.90
25248;DHT22;13191;47.472;11.214;2023-06-19T13:44:05;27.60;99.90
25248;DHT22;13191;47.472;11.214;2023-06-19T13:46:30;27.60;99.90
25248;DHT22;13191;47.472;11.214;2023-06-19T13:48:57;27.70;99.90
25248;DHT22;13191;47.472;11.214;2023-06-19T13:51:22;27.60;99.90
25248;DHT22;13191;47.472;11.214;2023-06-19T13:53:48;27.70;99.90
25248;DHT22;13191;47.472;11.214;2023-06-19T13:56:14;27.70;99.90
25248;DHT22;13191;47.472;11.214;2023-06-19T13:58:39;27.70;99.90
25248;DHT22;13191;47.472;11.214;2023-06-19T14:01:05;27.80;99.90
25248;DHT22;13191;47.472;11.214;2023-06-19T14:03:31;28.00;99.90
25248;DHT22;13191;47.472;11.214;2023-06-19T14:05:56;28.20;99.90
25248;DHT22;13191;47.472;11.214;2023-06-19T14:08:22;28.40;99.90
25248;DHT22;13191;47.472;11.214;2023-06-19T14:10:49;28.50;99.90
25248;DHT22;13191;47.472;11.214;2023-06-19T14:13:15;28.60;99.90
25248;DHT22;13191;47.472;11.214;2023-06-19T14:15:40;28.70;99.90
25248;DHT22;13191;47.472;11.214;2023-06-19T14:18:06;28.90;99.90
25248;DHT22;13191;47.472;11.214;2023-06-19T14:20:32;28.90;99.90
25248;DHT22;13191;47.472;11.214;2023-06-19T14:22:57;29.00;99.90
25248;DHT22;13191;47.472;11.214;2023-06-19T14:25:23;29.00;99.90
25248;DHT22;13191;47.472;11.214;2023-06-19T14:27:48;28.90;99.90
25248;DHT22;13191;47.472;11.214;2023-06-19T14:30:14;28.80;99.90
25248;DHT22;13191;47.472;11.214;2023-06-19T14:32:39;28.60;99.90
25248;DHT22;13191;47.472;11.214;2023-06-19T14:35:05;28.60;99.90
25248;DHT22;13191;47.472;11.214;2023-06-19T14:37:31;28.60;99.90
25248;DHT22;13191;47.472;11.214;2023-06-19T14:39:56;28.70;99.90
25248;DHT22;13191;47.472;11.214;2023-06-19T14:42:22;28.80;99.90
25248;DHT22;13191;47.472;11.214;2023-06-19T14:44:47;28.90;99.90
25248;DHT22;13191;47.472;11.214;2023-06-19T14:47:13;29.00;99.90
25248;DHT22;13191;47.472;11.214;2023-06-19T14:49:38;29.20;99.90
25248;DHT22;13191;47.472;11.214;2023-06-19T14:52:04;29.40;99.90
25248;DHT22;13191;47.472;11.214;2023-06-19T14:54:30;29.50;99.90
25248;DHT22;13191;47.472;11.214;2023-06-19T14:56:56;29.70;99.90
25248;DHT22;13191;47.472;11.214;2023-06-19T14:59:21;29.90;99.90
25248;DHT22;13191;47.472;11.214;2023-06-19T15:01:46;30.00;99.90
25248;DHT22;13191;47.472;11.214;2023-06-19T15:04:12;30.00;99.90
25248;DHT22;13191;47.472;11.214;2023-06-19T15:06:37;30.10;99.90
25248;DHT22;13191;47.472;11.214;2023-06-19T15:09:03;30.10;99.90
25248;DHT22;13191;47.472;11.214;2023-06-19T15:11:28;30.20;99.90